Shinglehouse, Pennsylvania
Current Conditions -  °F | °C
As of 3:56 AM on Monday 24 Nov 2014 (Local Time) from KELZ Reporting Station
Overcast Overcast  
Wind Chill: 51°   Ceiling: 1400
Heat Index: 51°   Visibility: 10mi
Dew Point: 47°   Wind: 26mph
Humidity: 86%   Direction: 170°S
Pressure: 29.44"   Gusts: 41mph
Location:  41.96°N, 78.19°W
Report Text: KELZ 240856Z AUTO 17023G36KT 10SM OVC014 11/08 A2944 RMK AO2 PK WND 17036/0844 RAE30 SLP971 P0001 60015 T01060083 56054
Loading
Personal Weather Stations






























Interactive Weather Map New forecast layout! Learn more

10-Day Weather Forecast

Advertisements
Track Severe Weather on mobile